sensor_id;sensor_type;location;lat;lon;timestamp;P1;durP1;ratioP1;P2;durP2;ratioP2
81487;SDS011;70897;52.464;13.428;2023-11-19T00:00:28;11.50;;;7.82;;
81487;SDS011;70897;52.464;13.428;2023-11-19T00:03:13;10.63;;;7.22;;
81487;SDS011;70897;52.464;13.428;2023-11-19T00:05:58;13.80;;;8.00;;
81487;SDS011;70897;52.464;13.428;2023-11-19T00:08:44;10.32;;;7.38;;
81487;SDS011;70897;52.464;13.428;2023-11-19T00:11:29;10.52;;;7.50;;
81487;SDS011;70897;52.464;13.428;2023-11-19T00:14:14;12.73;;;6.80;;
81487;SDS011;70897;52.464;13.428;2023-11-19T00:16:59;11.30;;;7.28;;
81487;SDS011;70897;52.464;13.428;2023-11-19T00:19:46;11.98;;;7.63;;
81487;SDS011;70897;52.464;13.428;2023-11-19T00:22:33;10.57;;;7.60;;
81487;SDS011;70897;52.464;13.428;2023-11-19T00:25:19;11.43;;;6.95;;
81487;SDS011;70897;52.464;13.428;2023-11-19T00:32:39;11.10;;;6.70;;
81487;SDS011;70897;52.464;13.428;2023-11-19T00:35:25;12.00;;;6.60;;
81487;SDS011;70897;52.464;13.428;2023-11-19T00:43:05;12.55;;;7.00;;
81487;SDS011;70897;52.464;13.428;2023-11-19T00:45:50;9.73;;;6.70;;
81487;SDS011;70897;52.464;13.428;2023-11-19T00:48:35;12.20;;;6.85;;
81487;SDS011;70897;52.464;13.428;2023-11-19T00:51:20;9.70;;;6.40;;
81487;SDS011;70897;52.464;13.428;2023-11-19T00:54:08;9.68;;;6.43;;
81487;SDS011;70897;52.464;13.428;2023-11-19T00:56:56;9.70;;;5.95;;
81487;SDS011;70897;52.464;13.428;2023-11-19T00:59:44;9.88;;;6.47;;
81487;SDS011;70897;52.464;13.428;2023-11-19T01:02:29;9.55;;;6.45;;
81487;SDS011;70897;52.464;13.428;2023-11-19T01:05:15;9.90;;;6.25;;
81487;SDS011;70897;52.464;13.428;2023-11-19T01:08:00;10.13;;;6.40;;
81487;SDS011;70897;52.464;13.428;2023-11-19T01:10:45;10.93;;;6.43;;
81487;SDS011;70897;52.464;13.428;2023-11-19T01:13:30;10.00;;;6.75;;
81487;SDS011;70897;52.464;13.428;2023-11-19T01:16:15;8.90;;;5.78;;
81487;SDS011;70897;52.464;13.428;2023-11-19T01:19:01;8.77;;;6.07;;
81487;SDS011;70897;52.464;13.428;2023-11-19T01:21:49;10.27;;;6.53;;
81487;SDS011;70897;52.464;13.428;2023-11-19T01:24:34;9.35;;;6.15;;
81487;SDS011;70897;52.464;13.428;2023-11-19T01:27:19;9.32;;;6.15;;
81487;SDS011;70897;52.464;13.428;2023-11-19T01:30:04;9.90;;;6.30;;
81487;SDS011;70897;52.464;13.428;2023-11-19T01:32:54;9.30;;;7.18;;
81487;SDS011;70897;52.464;13.428;2023-11-19T01:35:40;10.80;;;6.30;;
81487;SDS011;70897;52.464;13.428;2023-11-19T01:38:25;10.52;;;6.60;;
81487;SDS011;70897;52.464;13.428;2023-11-19T01:41:10;8.88;;;6.07;;
81487;SDS011;70897;52.464;13.428;2023-11-19T01:43:55;9.98;;;6.40;;
81487;SDS011;70897;52.464;13.428;2023-11-19T01:46:41;9.65;;;6.03;;
81487;SDS011;70897;52.464;13.428;2023-11-19T01:49:27;9.07;;;5.80;;
81487;SDS011;70897;52.464;13.428;2023-11-19T01:52:13;10.75;;;5.78;;
81487;SDS011;70897;52.464;13.428;2023-11-19T01:54:58;8.93;;;6.30;;
81487;SDS011;70897;52.464;13.428;2023-11-19T01:57:43;11.05;;;6.30;;
81487;SDS011;70897;52.464;13.428;2023-11-19T02:00:28;9.55;;;6.30;;
81487;SDS011;70897;52.464;13.428;2023-11-19T02:03:14;11.93;;;6.28;;
81487;SDS011;70897;52.464;13.428;2023-11-19T02:05:59;10.60;;;6.68;;
81487;SDS011;70897;52.464;13.428;2023-11-19T02:08:44;8.98;;;6.35;;
81487;SDS011;70897;52.464;13.428;2023-11-19T02:11:29;9.88;;;6.20;;
81487;SDS011;70897;52.464;13.428;2023-11-19T02:14:15;7.43;;;5.18;;
81487;SDS011;70897;52.464;13.428;2023-11-19T02:17:00;9.30;;;6.38;;
81487;SDS011;70897;52.464;13.428;2023-11-19T02:19:45;9.80;;;5.88;;
81487;SDS011;70897;52.464;13.428;2023-11-19T02:22:30;12.00;;;6.30;;
81487;SDS011;70897;52.464;13.428;2023-11-19T02:25:34;8.32;;;6.53;;
81487;SDS011;70897;52.464;13.428;2023-11-19T02:28:20;11.18;;;6.80;;
81487;SDS011;70897;52.464;13.428;2023-11-19T02:31:06;8.90;;;6.03;;
81487;SDS011;70897;52.464;13.428;2023-11-19T02:33:53;11.30;;;6.47;;
81487;SDS011;70897;52.464;13.428;2023-11-19T02:36:39;9.95;;;5.93;;
81487;SDS011;70897;52.464;13.428;2023-11-19T02:39:25;8.82;;;5.93;;
81487;SDS011;70897;52.464;13.428;2023-11-19T02:42:11;9.43;;;5.75;;
81487;SDS011;70897;52.464;13.428;2023-11-19T02:44:55;7.78;;;5.28;;
81487;SDS011;70897;52.464;13.428;2023-11-19T02:47:41;8.85;;;5.30;;
81487;SDS011;70897;52.464;13.428;2023-11-19T02:50:28;8.23;;;5.57;;
81487;SDS011;70897;52.464;13.428;2023-11-19T02:53:13;7.68;;;5.53;;
81487;SDS011;70897;52.464;13.428;2023-11-19T02:55:58;12.48;;;5.40;;
81487;SDS011;70897;52.464;13.428;2023-11-19T02:58:50;8.20;;;5.20;;
81487;SDS011;70897;52.464;13.428;2023-11-19T03:01:35;7.63;;;5.38;;
81487;SDS011;70897;52.464;13.428;2023-11-19T03:04:20;6.63;;;4.93;;
81487;SDS011;70897;52.464;13.428;2023-11-19T03:07:07;8.90;;;5.15;;
81487;SDS011;70897;52.464;13.428;2023-11-19T03:09:52;7.55;;;4.88;;
81487;SDS011;70897;52.464;13.428;2023-11-19T03:12:39;8.27;;;4.78;;
81487;SDS011;70897;52.464;13.428;2023-11-19T03:15:25;6.25;;;4.50;;
81487;SDS011;70897;52.464;13.428;2023-11-19T03:18:11;6.10;;;4.57;;
81487;SDS011;70897;52.464;13.428;2023-11-19T03:20:56;8.65;;;4.47;;
81487;SDS011;70897;52.464;13.428;2023-11-19T03:23:43;8.07;;;5.00;;
81487;SDS011;70897;52.464;13.428;2023-11-19T03:26:28;7.45;;;5.00;;
81487;SDS011;70897;52.464;13.428;2023-11-19T03:29:12;6.95;;;4.97;;
81487;SDS011;70897;52.464;13.428;2023-11-19T03:31:57;7.85;;;5.00;;
81487;SDS011;70897;52.464;13.428;2023-11-19T03:34:42;7.70;;;5.32;;
81487;SDS011;70897;52.464;13.428;2023-11-19T03:37:28;9.43;;;5.60;;
81487;SDS011;70897;52.464;13.428;2023-11-19T03:40:13;9.10;;;5.40;;
81487;SDS011;70897;52.464;13.428;2023-11-19T03:42:59;10.80;;;5.70;;
81487;SDS011;70897;52.464;13.428;2023-11-19T03:45:44;7.35;;;4.88;;
81487;SDS011;70897;52.464;13.428;2023-11-19T03:48:29;7.97;;;5.90;;
81487;SDS011;70897;52.464;13.428;2023-11-19T03:51:14;9.88;;;6.60;;
81487;SDS011;70897;52.464;13.428;2023-11-19T03:53:59;10.88;;;6.00;;
81487;SDS011;70897;52.464;13.428;2023-11-19T03:56:45;12.68;;;6.28;;
81487;SDS011;70897;52.464;13.428;2023-11-19T03:59:31;9.68;;;6.30;;
81487;SDS011;70897;52.464;13.428;2023-11-19T04:02:16;14.13;;;6.75;;
81487;SDS011;70897;52.464;13.428;2023-11-19T04:05:01;10.00;;;7.15;;
81487;SDS011;70897;52.464;13.428;2023-11-19T04:07:48;12.73;;;7.22;;
81487;SDS011;70897;52.464;13.428;2023-11-19T04:10:33;12.55;;;7.88;;
81487;SDS011;70897;52.464;13.428;2023-11-19T04:13:18;9.65;;;6.63;;
81487;SDS011;70897;52.464;13.428;2023-11-19T04:16:03;11.55;;;7.35;;
81487;SDS011;70897;52.464;13.428;2023-11-19T04:18:49;11.50;;;7.88;;
81487;SDS011;70897;52.464;13.428;2023-11-19T04:21:34;11.60;;;7.38;;
81487;SDS011;70897;52.464;13.428;2023-11-19T04:24:19;11.10;;;7.60;;
81487;SDS011;70897;52.464;13.428;2023-11-19T04:27:04;10.32;;;7.40;;
81487;SDS011;70897;52.464;13.428;2023-11-19T04:29:50;10.65;;;7.28;;
81487;SDS011;70897;52.464;13.428;2023-11-19T04:32:36;10.35;;;7.50;;
81487;SDS011;70897;52.464;13.428;2023-11-19T04:35:21;11.13;;;7.10;;
81487;SDS011;70897;52.464;13.428;2023-11-19T04:38:06;10.73;;;7.18;;
81487;SDS011;70897;52.464;13.428;2023-11-19T04:40:51;11.43;;;7.47;;
81487;SDS011;70897;52.464;13.428;2023-11-19T04:43:36;11.90;;;7.15;;
81487;SDS011;70897;52.464;13.428;2023-11-19T04:46:21;12.50;;;7.93;;
81487;SDS011;70897;52.464;13.428;2023-11-19T04:49:08;10.15;;;7.50;;
81487;SDS011;70897;52.464;13.428;2023-11-19T04:51:55;16.40;;;8.27;;
81487;SDS011;70897;52.464;13.428;2023-11-19T04:54:40;13.55;;;8.40;;
81487;SDS011;70897;52.464;13.428;2023-11-19T04:57:26;12.82;;;8.27;;
81487;SDS011;70897;52.464;13.428;2023-11-19T05:00:11;16.75;;;9.10;;
81487;SDS011;70897;52.464;13.428;2023-11-19T05:02:57;14.85;;;8.65;;
81487;SDS011;70897;52.464;13.428;2023-11-19T05:05:43;16.42;;;9.85;;
81487;SDS011;70897;52.464;13.428;2023-11-19T05:08:28;14.05;;;8.18;;
81487;SDS011;70897;52.464;13.428;2023-11-19T05:11:13;12.88;;;8.57;;
81487;SDS011;70897;52.464;13.428;2023-11-19T05:14:02;13.88;;;8.77;;
81487;SDS011;70897;52.464;13.428;2023-11-19T05:16:50;16.77;;;8.75;;
81487;SDS011;70897;52.464;13.428;2023-11-19T05:19:35;15.25;;;8.23;;
81487;SDS011;70897;52.464;13.428;2023-11-19T05:22:20;12.75;;;8.70;;
81487;SDS011;70897;52.464;13.428;2023-11-19T05:25:06;16.17;;;8.13;;
81487;SDS011;70897;52.464;13.428;2023-11-19T05:27:51;16.50;;;8.40;;
81487;SDS011;70897;52.464;13.428;2023-11-19T05:30:36;11.80;;;8.60;;
81487;SDS011;70897;52.464;13.428;2023-11-19T05:33:21;15.43;;;7.82;;
81487;SDS011;70897;52.464;13.428;2023-11-19T05:36:06;13.48;;;8.57;;
81487;SDS011;70897;52.464;13.428;2023-11-19T05:38:52;14.13;;;9.05;;
81487;SDS011;70897;52.464;13.428;2023-11-19T05:41:37;13.48;;;8.98;;
81487;SDS011;70897;52.464;13.428;2023-11-19T05:44:22;14.65;;;8.75;;
81487;SDS011;70897;52.464;13.428;2023-11-19T05:47:07;13.55;;;9.60;;
81487;SDS011;70897;52.464;13.428;2023-11-19T05:49:52;17.88;;;8.77;;
81487;SDS011;70897;52.464;13.428;2023-11-19T05:52:37;14.52;;;8.15;;
81487;SDS011;70897;52.464;13.428;2023-11-19T05:55:22;13.55;;;9.02;;
81487;SDS011;70897;52.464;13.428;2023-11-19T05:58:08;12.93;;;8.55;;
81487;SDS011;70897;52.464;13.428;2023-11-19T06:00:56;14.02;;;8.43;;
81487;SDS011;70897;52.464;13.428;2023-11-19T06:03:41;14.63;;;9.25;;
81487;SDS011;70897;52.464;13.428;2023-11-19T06:06:28;14.32;;;9.07;;
81487;SDS011;70897;52.464;13.428;2023-11-19T06:09:13;12.07;;;8.65;;
81487;SDS011;70897;52.464;13.428;2023-11-19T06:11:58;11.90;;;8.00;;
81487;SDS011;70897;52.464;13.428;2023-11-19T06:14:46;13.05;;;9.07;;
81487;SDS011;70897;52.464;13.428;2023-11-19T06:17:31;12.60;;;8.57;;
81487;SDS011;70897;52.464;13.428;2023-11-19T06:20:16;12.73;;;8.05;;
81487;SDS011;70897;52.464;13.428;2023-11-19T06:23:02;12.20;;;8.32;;
81487;SDS011;70897;52.464;13.428;2023-11-19T06:25:47;13.85;;;8.27;;
81487;SDS011;70897;52.464;13.428;2023-11-19T06:28:32;16.55;;;8.20;;
81487;SDS011;70897;52.464;13.428;2023-11-19T06:31:17;11.02;;;7.32;;
81487;SDS011;70897;52.464;13.428;2023-11-19T06:34:02;12.30;;;8.55;;
81487;SDS011;70897;52.464;13.428;2023-11-19T06:36:47;12.88;;;8.88;;
81487;SDS011;70897;52.464;13.428;2023-11-19T06:39:32;15.02;;;8.82;;
81487;SDS011;70897;52.464;13.428;2023-11-19T06:42:19;18.70;;;9.20;;
81487;SDS011;70897;52.464;13.428;2023-11-19T06:45:05;13.05;;;9.57;;
81487;SDS011;70897;52.464;13.428;2023-11-19T06:47:51;12.68;;;7.97;;
81487;SDS011;70897;52.464;13.428;2023-11-19T06:50:36;11.30;;;8.10;;
81487;SDS011;70897;52.464;13.428;2023-11-19T06:53:21;12.45;;;8.13;;
81487;SDS011;70897;52.464;13.428;2023-11-19T06:56:16;10.77;;;7.63;;
81487;SDS011;70897;52.464;13.428;2023-11-19T06:59:02;12.63;;;8.07;;
81487;SDS011;70897;52.464;13.428;2023-11-19T07:01:48;12.35;;;7.95;;
81487;SDS011;70897;52.464;13.428;2023-11-19T07:04:33;10.90;;;8.05;;
81487;SDS011;70897;52.464;13.428;2023-11-19T07:07:18;14.27;;;7.75;;
81487;SDS011;70897;52.464;13.428;2023-11-19T07:10:05;9.65;;;7.18;;
81487;SDS011;70897;52.464;13.428;2023-11-19T07:13:05;10.98;;;7.50;;
81487;SDS011;70897;52.464;13.428;2023-11-19T07:15:55;11.27;;;7.55;;
81487;SDS011;70897;52.464;13.428;2023-11-19T07:18:40;11.38;;;7.68;;
81487;SDS011;70897;52.464;13.428;2023-11-19T07:21:27;12.65;;;6.65;;
81487;SDS011;70897;52.464;13.428;2023-11-19T07:24:13;11.90;;;7.30;;
81487;SDS011;70897;52.464;13.428;2023-11-19T07:26:58;9.95;;;7.28;;
81487;SDS011;70897;52.464;13.428;2023-11-19T07:29:43;12.32;;;8.05;;
81487;SDS011;70897;52.464;13.428;2023-11-19T07:32:29;9.15;;;7.10;;
81487;SDS011;70897;52.464;13.428;2023-11-19T07:35:14;9.68;;;7.00;;
81487;SDS011;70897;52.464;13.428;2023-11-19T07:38:02;9.20;;;7.07;;
81487;SDS011;70897;52.464;13.428;2023-11-19T07:40:47;9.50;;;6.63;;
81487;SDS011;70897;52.464;13.428;2023-11-19T07:43:32;9.85;;;6.78;;
81487;SDS011;70897;52.464;13.428;2023-11-19T07:46:17;9.48;;;6.70;;
81487;SDS011;70897;52.464;13.428;2023-11-19T07:49:05;10.15;;;6.60;;
81487;SDS011;70897;52.464;13.428;2023-11-19T07:51:51;9.45;;;6.55;;
81487;SDS011;70897;52.464;13.428;2023-11-19T07:54:36;10.77;;;6.45;;
81487;SDS011;70897;52.464;13.428;2023-11-19T07:57:21;8.35;;;6.45;;
81487;SDS011;70897;52.464;13.428;2023-11-19T08:00:08;8.98;;;6.38;;
81487;SDS011;70897;52.464;13.428;2023-11-19T08:02:59;11.23;;;6.88;;
81487;SDS011;70897;52.464;13.428;2023-11-19T08:05:47;7.65;;;5.60;;
81487;SDS011;70897;52.464;13.428;2023-11-19T08:08:33;7.82;;;5.90;;
81487;SDS011;70897;52.464;13.428;2023-11-19T08:11:18;15.07;;;10.00;;
81487;SDS011;70897;52.464;13.428;2023-11-19T08:14:06;7.45;;;5.50;;
81487;SDS011;70897;52.464;13.428;2023-11-19T08:16:51;8.70;;;6.47;;
81487;SDS011;70897;52.464;13.428;2023-11-19T08:19:37;8.80;;;6.13;;
81487;SDS011;70897;52.464;13.428;2023-11-19T08:22:22;8.75;;;6.07;;
81487;SDS011;70897;52.464;13.428;2023-11-19T08:25:07;9.50;;;5.80;;
81487;SDS011;70897;52.464;13.428;2023-11-19T08:27:52;8.02;;;6.10;;
81487;SDS011;70897;52.464;13.428;2023-11-19T08:30:37;7.03;;;5.72;;
81487;SDS011;70897;52.464;13.428;2023-11-19T08:33:22;8.48;;;6.45;;
81487;SDS011;70897;52.464;13.428;2023-11-19T08:36:07;8.38;;;5.97;;
81487;SDS011;70897;52.464;13.428;2023-11-19T08:38:53;7.95;;;5.75;;
81487;SDS011;70897;52.464;13.428;2023-11-19T08:41:38;10.73;;;6.70;;
81487;SDS011;70897;52.464;13.428;2023-11-19T08:44:25;8.35;;;5.80;;
81487;SDS011;70897;52.464;13.428;2023-11-19T08:47:11;10.13;;;5.97;;
81487;SDS011;70897;52.464;13.428;2023-11-19T08:49:57;8.25;;;6.18;;
81487;SDS011;70897;52.464;13.428;2023-11-19T08:52:42;8.00;;;5.60;;
81487;SDS011;70897;52.464;13.428;2023-11-19T08:55:28;13.75;;;6.63;;
81487;SDS011;70897;52.464;13.428;2023-11-19T08:58:13;9.00;;;7.03;;
81487;SDS011;70897;52.464;13.428;2023-11-19T09:00:58;8.23;;;6.93;;
81487;SDS011;70897;52.464;13.428;2023-11-19T09:03:43;11.00;;;7.53;;
81487;SDS011;70897;52.464;13.428;2023-11-19T09:06:29;8.02;;;6.32;;
81487;SDS011;70897;52.464;13.428;2023-11-19T09:09:14;15.90;;;7.30;;
81487;SDS011;70897;52.464;13.428;2023-11-19T09:12:00;12.15;;;6.88;;
81487;SDS011;70897;52.464;13.428;2023-11-19T09:14:45;10.40;;;7.10;;
81487;SDS011;70897;52.464;13.428;2023-11-19T09:17:31;9.07;;;6.03;;
81487;SDS011;70897;52.464;13.428;2023-11-19T09:20:16;6.20;;;5.30;;
81487;SDS011;70897;52.464;13.428;2023-11-19T09:23:01;5.45;;;4.60;;
81487;SDS011;70897;52.464;13.428;2023-11-19T09:25:47;7.03;;;4.57;;
81487;SDS011;70897;52.464;13.428;2023-11-19T09:28:32;6.18;;;4.28;;
81487;SDS011;70897;52.464;13.428;2023-11-19T09:31:18;4.93;;;3.50;;
81487;SDS011;70897;52.464;13.428;2023-11-19T09:34:03;4.70;;;3.28;;
81487;SDS011;70897;52.464;13.428;2023-11-19T09:36:48;4.70;;;2.80;;
81487;SDS011;70897;52.464;13.428;2023-11-19T09:39:33;4.40;;;2.90;;
81487;SDS011;70897;52.464;13.428;2023-11-19T09:42:19;5.28;;;2.85;;
81487;SDS011;70897;52.464;13.428;2023-11-19T09:45:04;2.63;;;2.33;;
81487;SDS011;70897;52.464;13.428;2023-11-19T09:51:04;3.90;;;2.50;;
81487;SDS011;70897;52.464;13.428;2023-11-19T09:53:49;9.02;;;2.17;;
81487;SDS011;70897;52.464;13.428;2023-11-19T09:56:34;2.88;;;1.45;;
81487;SDS011;70897;52.464;13.428;2023-11-19T09:59:21;3.58;;;1.48;;
81487;SDS011;70897;52.464;13.428;2023-11-19T10:02:07;3.10;;;1.60;;
81487;SDS011;70897;52.464;13.428;2023-11-19T10:04:52;3.58;;;1.67;;
81487;SDS011;70897;52.464;13.428;2023-11-19T10:07:38;5.30;;;1.70;;
81487;SDS011;70897;52.464;13.428;2023-11-19T10:10:24;4.47;;;1.67;;
81487;SDS011;70897;52.464;13.428;2023-11-19T10:13:09;3.80;;;1.60;;
81487;SDS011;70897;52.464;13.428;2023-11-19T10:15:55;5.85;;;1.90;;
81487;SDS011;70897;52.464;13.428;2023-11-19T10:18:48;4.35;;;2.00;;
81487;SDS011;70897;52.464;13.428;2023-11-19T10:21:35;4.50;;;1.88;;
81487;SDS011;70897;52.464;13.428;2023-11-19T10:24:33;4.90;;;1.80;;
81487;SDS011;70897;52.464;13.428;2023-11-19T10:27:19;7.07;;;1.98;;
81487;SDS011;70897;52.464;13.428;2023-11-19T10:30:04;5.55;;;1.90;;
81487;SDS011;70897;52.464;13.428;2023-11-19T10:33:10;5.80;;;2.03;;
81487;SDS011;70897;52.464;13.428;2023-11-19T10:35:59;12.32;;;2.33;;
81487;SDS011;70897;52.464;13.428;2023-11-19T10:38:52;6.43;;;2.00;;
81487;SDS011;70897;52.464;13.428;2023-11-19T10:41:38;8.35;;;2.35;;
81487;SDS011;70897;52.464;13.428;2023-11-19T10:44:30;8.35;;;2.47;;
81487;SDS011;70897;52.464;13.428;2023-11-19T10:47:18;6.00;;;2.30;;
81487;SDS011;70897;52.464;13.428;2023-11-19T10:50:05;6.78;;;2.28;;
81487;SDS011;70897;52.464;13.428;2023-11-19T11:00:51;8.75;;;2.67;;
81487;SDS011;70897;52.464;13.428;2023-11-19T11:03:40;10.98;;;3.10;;
81487;SDS011;70897;52.464;13.428;2023-11-19T11:06:27;8.63;;;2.60;;
81487;SDS011;70897;52.464;13.428;2023-11-19T11:13:43;9.85;;;2.67;;
81487;SDS011;70897;52.464;13.428;2023-11-19T11:16:29;13.20;;;2.55;;
81487;SDS011;70897;52.464;13.428;2023-11-19T11:19:16;5.00;;;2.60;;
81487;SDS011;70897;52.464;13.428;2023-11-19T11:22:02;8.85;;;2.55;;
81487;SDS011;70897;52.464;13.428;2023-11-19T11:25:02;9.57;;;2.67;;
81487;SDS011;70897;52.464;13.428;2023-11-19T11:31:08;15.00;;;2.95;;
81487;SDS011;70897;52.464;13.428;2023-11-19T11:39:53;25.42;;;6.22;;
81487;SDS011;70897;52.464;13.428;2023-11-19T11:42:38;15.90;;;3.90;;
81487;SDS011;70897;52.464;13.428;2023-11-19T11:45:37;11.27;;;3.33;;
81487;SDS011;70897;52.464;13.428;2023-11-19T11:48:23;13.95;;;2.88;;
81487;SDS011;70897;52.464;13.428;2023-11-19T11:51:11;11.23;;;2.65;;
81487;SDS011;70897;52.464;13.428;2023-11-19T11:53:58;13.30;;;3.00;;
81487;SDS011;70897;52.464;13.428;2023-11-19T11:56:43;10.18;;;2.70;;
81487;SDS011;70897;52.464;13.428;2023-11-19T11:59:46;10.98;;;2.58;;
81487;SDS011;70897;52.464;13.428;2023-11-19T12:02:31;8.40;;;2.50;;
81487;SDS011;70897;52.464;13.428;2023-11-19T12:05:17;15.38;;;3.13;;
81487;SDS011;70897;52.464;13.428;2023-11-19T12:08:03;16.80;;;4.00;;
81487;SDS011;70897;52.464;13.428;2023-11-19T12:10:51;17.05;;;3.42;;
81487;SDS011;70897;52.464;13.428;2023-11-19T12:13:53;14.55;;;3.17;;
81487;SDS011;70897;52.464;13.428;2023-11-19T12:16:40;13.77;;;3.20;;
81487;SDS011;70897;52.464;13.428;2023-11-19T12:19:25;15.27;;;3.33;;
81487;SDS011;70897;52.464;13.428;2023-11-19T12:22:12;16.60;;;4.00;;
81487;SDS011;70897;52.464;13.428;2023-11-19T12:24:57;12.45;;;3.60;;
81487;SDS011;70897;52.464;13.428;2023-11-19T12:27:44;16.15;;;3.17;;
81487;SDS011;70897;52.464;13.428;2023-11-19T12:30:30;12.77;;;3.40;;
81487;SDS011;70897;52.464;13.428;2023-11-19T12:33:15;21.60;;;3.60;;
81487;SDS011;70897;52.464;13.428;2023-11-19T12:36:01;16.05;;;3.55;;
81487;SDS011;70897;52.464;13.428;2023-11-19T12:38:49;19.83;;;5.35;;
81487;SDS011;70897;52.464;13.428;2023-11-19T12:41:48;15.93;;;3.95;;
81487;SDS011;70897;52.464;13.428;2023-11-19T12:44:34;17.58;;;3.78;;
81487;SDS011;70897;52.464;13.428;2023-11-19T12:47:19;17.08;;;4.30;;
81487;SDS011;70897;52.464;13.428;2023-11-19T12:50:04;14.18;;;3.90;;
81487;SDS011;70897;52.464;13.428;2023-11-19T12:52:57;22.65;;;4.60;;
81487;SDS011;70897;52.464;13.428;2023-11-19T12:55:44;22.38;;;4.53;;
81487;SDS011;70897;52.464;13.428;2023-11-19T12:58:33;18.52;;;3.83;;
81487;SDS011;70897;52.464;13.428;2023-11-19T13:01:20;24.23;;;5.18;;
81487;SDS011;70897;52.464;13.428;2023-11-19T13:04:27;19.73;;;4.40;;
81487;SDS011;70897;52.464;13.428;2023-11-19T13:07:13;27.08;;;7.32;;
81487;SDS011;70897;52.464;13.428;2023-11-19T13:10:02;23.67;;;4.30;;
81487;SDS011;70897;52.464;13.428;2023-11-19T13:13:03;21.77;;;4.22;;
81487;SDS011;70897;52.464;13.428;2023-11-19T13:15:49;22.95;;;4.68;;
81487;SDS011;70897;52.464;13.428;2023-11-19T13:18:35;23.35;;;4.28;;
81487;SDS011;70897;52.464;13.428;2023-11-19T13:21:20;22.30;;;4.55;;
81487;SDS011;70897;52.464;13.428;2023-11-19T13:24:06;20.17;;;4.30;;
81487;SDS011;70897;52.464;13.428;2023-11-19T13:26:52;20.33;;;4.60;;
81487;SDS011;70897;52.464;13.428;2023-11-19T13:29:37;17.95;;;4.13;;
81487;SDS011;70897;52.464;13.428;2023-11-19T13:32:23;23.65;;;4.88;;
81487;SDS011;70897;52.464;13.428;2023-11-19T13:35:08;25.02;;;3.90;;
81487;SDS011;70897;52.464;13.428;2023-11-19T13:37:53;24.85;;;4.97;;
81487;SDS011;70897;52.464;13.428;2023-11-19T13:40:39;18.58;;;4.40;;
81487;SDS011;70897;52.464;13.428;2023-11-19T13:43:24;22.33;;;4.97;;
81487;SDS011;70897;52.464;13.428;2023-11-19T13:46:10;19.83;;;4.30;;
81487;SDS011;70897;52.464;13.428;2023-11-19T13:48:55;23.20;;;4.07;;
81487;SDS011;70897;52.464;13.428;2023-11-19T13:51:41;24.55;;;4.68;;
81487;SDS011;70897;52.464;13.428;2023-11-19T13:54:26;26.13;;;5.40;;
81487;SDS011;70897;52.464;13.428;2023-11-19T13:57:11;19.38;;;4.28;;
81487;SDS011;70897;52.464;13.428;2023-11-19T13:59:57;19.25;;;4.40;;
81487;SDS011;70897;52.464;13.428;2023-11-19T14:02:43;23.35;;;5.07;;
81487;SDS011;70897;52.464;13.428;2023-11-19T14:05:28;19.52;;;3.95;;
81487;SDS011;70897;52.464;13.428;2023-11-19T14:08:14;21.73;;;4.63;;
81487;SDS011;70897;52.464;13.428;2023-11-19T14:10:59;28.90;;;5.32;;
81487;SDS011;70897;52.464;13.428;2023-11-19T14:13:45;28.80;;;5.00;;
81487;SDS011;70897;52.464;13.428;2023-11-19T14:16:31;30.00;;;6.07;;
81487;SDS011;70897;52.464;13.428;2023-11-19T14:19:18;22.15;;;4.20;;
81487;SDS011;70897;52.464;13.428;2023-11-19T14:22:04;20.67;;;3.95;;
81487;SDS011;70897;52.464;13.428;2023-11-19T14:24:49;24.35;;;4.40;;
81487;SDS011;70897;52.464;13.428;2023-11-19T14:27:38;23.75;;;4.80;;
81487;SDS011;70897;52.464;13.428;2023-11-19T14:30:24;20.77;;;4.60;;
81487;SDS011;70897;52.464;13.428;2023-11-19T14:33:09;22.42;;;5.13;;
81487;SDS011;70897;52.464;13.428;2023-11-19T14:35:55;37.58;;;11.80;;
81487;SDS011;70897;52.464;13.428;2023-11-19T14:38:40;26.42;;;5.28;;
81487;SDS011;70897;52.464;13.428;2023-11-19T14:41:26;28.42;;;5.60;;
81487;SDS011;70897;52.464;13.428;2023-11-19T14:44:11;22.85;;;4.25;;
81487;SDS011;70897;52.464;13.428;2023-11-19T14:46:57;23.25;;;5.75;;
81487;SDS011;70897;52.464;13.428;2023-11-19T14:49:43;22.27;;;4.43;;
81487;SDS011;70897;52.464;13.428;2023-11-19T14:52:29;20.15;;;4.78;;
81487;SDS011;70897;52.464;13.428;2023-11-19T14:55:15;22.15;;;4.78;;
81487;SDS011;70897;52.464;13.428;2023-11-19T14:58:03;22.73;;;5.88;;
81487;SDS011;70897;52.464;13.428;2023-11-19T15:01:10;38.28;;;9.82;;
81487;SDS011;70897;52.464;13.428;2023-11-19T15:03:54;25.90;;;4.70;;
81487;SDS011;70897;52.464;13.428;2023-11-19T15:06:46;24.35;;;5.18;;
81487;SDS011;70897;52.464;13.428;2023-11-19T15:13:16;31.08;;;6.68;;
81487;SDS011;70897;52.464;13.428;2023-11-19T15:19:17;22.40;;;4.75;;
81487;SDS011;70897;52.464;13.428;2023-11-19T15:22:05;24.05;;;4.82;;
81487;SDS011;70897;52.464;13.428;2023-11-19T15:24:54;24.15;;;4.60;;
81487;SDS011;70897;52.464;13.428;2023-11-19T15:28:00;22.95;;;4.68;;
81487;SDS011;70897;52.464;13.428;2023-11-19T15:31:10;23.77;;;5.07;;
81487;SDS011;70897;52.464;13.428;2023-11-19T15:37:41;24.27;;;5.10;;
81487;SDS011;70897;52.464;13.428;2023-11-19T15:40:34;28.95;;;5.55;;
81487;SDS011;70897;52.464;13.428;2023-11-19T15:53:12;33.65;;;8.98;;
81487;SDS011;70897;52.464;13.428;2023-11-19T15:56:51;24.38;;;5.28;;
81487;SDS011;70897;52.464;13.428;2023-11-19T16:06:43;21.60;;;5.10;;
81487;SDS011;70897;52.464;13.428;2023-11-19T16:14:36;24.83;;;5.20;;
81487;SDS011;70897;52.464;13.428;2023-11-19T16:17:33;32.75;;;5.80;;
81487;SDS011;70897;52.464;13.428;2023-11-19T16:20:19;31.35;;;6.57;;
81487;SDS011;70897;52.464;13.428;2023-11-19T16:23:17;26.70;;;5.70;;
81487;SDS011;70897;52.464;13.428;2023-11-19T16:26:08;25.05;;;5.55;;
81487;SDS011;70897;52.464;13.428;2023-11-19T16:28:59;26.13;;;5.22;;
81487;SDS011;70897;52.464;13.428;2023-11-19T16:31:50;26.08;;;5.65;;
81487;SDS011;70897;52.464;13.428;2023-11-19T16:34:53;29.10;;;6.33;;
81487;SDS011;70897;52.464;13.428;2023-11-19T16:37:49;25.75;;;5.22;;
81487;SDS011;70897;52.464;13.428;2023-11-19T16:40:35;27.20;;;5.35;;
81487;SDS011;70897;52.464;13.428;2023-11-19T16:43:23;35.08;;;5.75;;
81487;SDS011;70897;52.464;13.428;2023-11-19T16:46:12;27.65;;;6.00;;
81487;SDS011;70897;52.464;13.428;2023-11-19T16:48:57;29.10;;;6.00;;
81487;SDS011;70897;52.464;13.428;2023-11-19T16:51:46;25.73;;;5.25;;
81487;SDS011;70897;52.464;13.428;2023-11-19T16:54:32;30.45;;;5.97;;
81487;SDS011;70897;52.464;13.428;2023-11-19T16:57:17;26.10;;;6.15;;
81487;SDS011;70897;52.464;13.428;2023-11-19T17:00:05;27.63;;;5.60;;
81487;SDS011;70897;52.464;13.428;2023-11-19T17:02:57;26.25;;;5.57;;
81487;SDS011;70897;52.464;13.428;2023-11-19T17:05:49;30.15;;;6.20;;
81487;SDS011;70897;52.464;13.428;2023-11-19T17:08:34;30.50;;;6.53;;
81487;SDS011;70897;52.464;13.428;2023-11-19T17:11:21;30.75;;;6.40;;
81487;SDS011;70897;52.464;13.428;2023-11-19T17:14:07;37.95;;;6.68;;
81487;SDS011;70897;52.464;13.428;2023-11-19T17:16:53;28.67;;;9.05;;
81487;SDS011;70897;52.464;13.428;2023-11-19T17:19:39;35.88;;;7.43;;
81487;SDS011;70897;52.464;13.428;2023-11-19T17:22:26;29.60;;;6.30;;
81487;SDS011;70897;52.464;13.428;2023-11-19T17:25:11;45.00;;;12.98;;
81487;SDS011;70897;52.464;13.428;2023-11-19T17:27:57;26.25;;;6.35;;